createdAt,value
2022-11-30T00:07:48.993Z,2.98
2022-11-30T00:22:52.290Z,2.91
2022-11-30T00:37:55.476Z,2.88
2022-11-30T00:52:58.820Z,2.87
2022-11-30T01:08:07.636Z,2.80
2022-11-30T01:23:11.632Z,2.83
2022-11-30T01:38:14.758Z,2.86
2022-11-30T01:53:18.464Z,2.87
2022-11-30T02:08:22.932Z,2.88
2022-11-30T02:24:01.670Z,2.85
2022-11-30T02:39:06.066Z,2.88
2022-11-30T02:54:12.044Z,2.83
2022-11-30T03:09:15.610Z,2.82
2022-11-30T03:24:18.825Z,2.80
2022-11-30T03:39:22.089Z,2.83
2022-11-30T03:54:25.484Z,2.87
2022-11-30T04:09:29.094Z,2.87
2022-11-30T04:24:32.235Z,2.77
2022-11-30T04:39:35.819Z,2.78
2022-11-30T04:54:39.309Z,2.83
2022-11-30T05:09:42.592Z,2.84
2022-11-30T05:24:46.029Z,2.88
2022-11-30T05:39:49.432Z,2.97
2022-11-30T05:54:53.324Z,2.94
2022-11-30T06:09:56.656Z,2.94
2022-11-30T06:24:59.774Z,3.02
2022-11-30T06:40:07.279Z,3.03
2022-11-30T06:55:11.421Z,2.99
2022-11-30T07:10:19.816Z,3.10
2022-11-30T07:25:41.710Z,3.17
2022-11-30T07:40:45.307Z,3.20
2022-11-30T07:55:52.745Z,3.26
2022-11-30T08:11:01.028Z,3.29
2022-11-30T08:26:06.782Z,3.35
2022-11-30T08:41:12.540Z,3.33
2022-11-30T08:56:19.677Z,3.36
2022-11-30T09:11:31.566Z,3.28
2022-11-30T09:26:35.181Z,3.40
2022-11-30T09:41:52.472Z,3.43
2022-11-30T09:56:55.996Z,3.46
2022-11-30T10:12:05.497Z,3.42
2022-11-30T10:27:37.552Z,3.36
2022-11-30T10:42:52.801Z,3.31
2022-11-30T10:58:04.164Z,3.29
2022-11-30T11:13:40.362Z,3.27
2022-11-30T11:28:50.389Z,3.35
2022-11-30T11:44:05.164Z,3.40
2022-11-30T11:59:28.026Z,3.37
2022-11-30T12:14:35.538Z,3.48
2022-11-30T12:29:50.648Z,3.42
2022-11-30T12:44:56.798Z,3.41
2022-11-30T13:00:17.590Z,3.32
2022-11-30T13:15:25.750Z,3.37
2022-11-30T13:30:53.971Z,3.29
2022-11-30T13:46:13.252Z,3.33
2022-11-30T14:01:27.936Z,3.38
2022-11-30T14:16:32.272Z,3.58
2022-11-30T14:31:59.079Z,3.44
2022-11-30T14:47:28.305Z,3.59
2022-11-30T15:02:37.490Z,3.67
2022-11-30T15:17:48.689Z,3.80
2022-11-30T15:32:53.240Z,3.88
2022-11-30T15:47:59.095Z,3.90
2022-11-30T16:03:13.523Z,4.07
2022-11-30T16:18:22.821Z,4.01
2022-11-30T16:33:27.555Z,4.06
2022-11-30T16:48:31.185Z,4.12
2022-11-30T17:03:36.365Z,4.19
2022-11-30T17:18:39.715Z,4.07
2022-11-30T17:33:47.895Z,4.07
2022-11-30T17:48:52.007Z,4.13
2022-11-30T18:03:57.056Z,4.13
2022-11-30T18:19:00.828Z,4.20
2022-11-30T18:34:07.354Z,4.17
2022-11-30T18:49:11.787Z,4.12
2022-11-30T19:04:15.764Z,4.17
2022-11-30T19:19:19.295Z,4.22
2022-11-30T19:34:22.509Z,4.17
2022-11-30T19:49:26.133Z,4.13
2022-11-30T20:04:29.626Z,4.15
2022-11-30T20:19:33.251Z,4.13
2022-11-30T20:34:42.383Z,4.20
2022-11-30T20:49:46.874Z,4.16
2022-11-30T21:04:50.349Z,4.12
2022-11-30T21:19:54.017Z,4.08
2022-11-30T21:34:57.747Z,4.16
2022-11-30T21:50:01.823Z,4.20
2022-11-30T22:05:05.949Z,4.11
2022-11-30T22:20:09.949Z,4.09
2022-11-30T22:35:13.172Z,4.03
2022-11-30T22:50:16.731Z,4.04
2022-11-30T23:05:20.348Z,4.04
2022-11-30T23:20:23.467Z,4.04
2022-11-30T23:35:26.830Z,4.02
2022-11-30T23:50:30.254Z,4.14
